Boca do Acre, Brazil
Current Conditions -  °F | °C
As of 8:00 AM on Tuesday 21 Oct 2014 (Local Time) from SBRB Reporting Station
Broken Clouds Broken Clouds  
Wind Chill: 73°   Ceiling: 10000
Heat Index: 73°   Visibility: 6mi
Dew Point: 70°   Wind: 2mph
Humidity: 88%   Direction: 200°SSW
Pressure: 29.97"   Gusts: NA
Location:  8.74°S, 67.4°W
Report Text: SBRB 211200Z 20002KT 9999 SCT020 FEW030TCU BKN100 23/21 Q1015
Loading
Personal Weather Stations






























Interactive Weather Map
Tropical Storm Tracking
New forecast layout! Learn more

10-Day Weather Forecast

Advertisements
Track Severe Weather on mobile